Terminal Aerodrome Forecast
Issued by NWS

Home | Current Version | Previous Version | Graphics & Text | Print | Product List | Glossary On
Versions: 1 2 3 4 5 6 7 8 9 10 11 12 13 14 15 16 17 18 19 20
000
FTUS43 KFGF 280400 AAA
TAFBJI
TAF AMD
KBJI 280422Z 2804/2824 16008KT P6SM OVC027
      TEMPO 2804/2808 2SM -SN BR OVC019
     FM280800 15009KT 3SM -SN OVC015
     FM281300 11004KT P6SM OVC015=

USA.gov is the U.S. government's official web portal to all federal, state and local government web resources and services.